Time;durP1;ratioP1;P1;durP2;ratioP2;P2;SDS_P1;SDS_P2;PMS_P1;PMS_P2;Temp;Humidity;BMP_temperature;BMP_pressure;BME280_temperature;BME280_humidity;BME280_pressure;Samples;Min_cycle;Max_cycle;Signal;HPM_P1;HPM_P2
2022/06/26 00:00:21;;;;;;;;;;;11.90;99.90;;;;;;5006213;28;19948;-72
2022/06/26 00:02:48;;;;;;;;;;;12.00;99.90;;;;;;5004954;28;19925;-72
2022/06/26 00:05:15;;;;;;;;;;;12.00;99.90;;;;;;5004402;28;20350;-72
2022/06/26 00:07:42;;;;;;;;;;;12.10;99.90;;;;;;5003939;28;19948;-72
2022/06/26 00:10:09;;;;;;;;;;;12.10;99.90;;;;;;5005120;28;19912;-72
2022/06/26 00:12:36;;;;;;;;;;;12.20;99.90;;;;;;5005495;28;20398;-73
2022/06/26 00:15:03;;;;;;;;;;;12.20;99.90;;;;;;5003190;28;19906;-75
2022/06/26 00:17:30;;;;;;;;;;;12.30;99.90;;;;;;5004929;28;19932;-74
2022/06/26 00:19:57;;;;;;;;;;;12.30;99.90;;;;;;5005808;28;19920;-71
2022/06/26 00:22:24;;;;;;;;;;;12.30;99.90;;;;;;5004169;28;19936;-72
2022/06/26 00:24:51;;;;;;;;;;;12.30;99.90;;;;;;5003662;28;20246;-73
2022/06/26 00:27:19;;;;;;;;;;;12.40;99.90;;;;;;5005693;28;20008;-74
2022/06/26 00:29:46;;;;;;;;;;;12.40;99.90;;;;;;5004346;28;20333;-72
2022/06/26 00:32:13;;;;;;;;;;;12.50;99.90;;;;;;5004255;28;19961;-75
2022/06/26 00:34:40;;;;;;;;;;;12.50;99.90;;;;;;5005472;28;19905;-73
2022/06/26 00:37:07;;;;;;;;;;;12.60;99.90;;;;;;5004162;28;19910;-72
2022/06/26 00:39:33;;;;;;;;;;;12.70;99.90;;;;;;5004076;28;20277;-72
2022/06/26 00:42:00;;;;;;;;;;;12.70;99.90;;;;;;5005395;28;19987;-73
2022/06/26 00:44:27;;;;;;;;;;;12.80;99.90;;;;;;5004137;28;19910;-72
2022/06/26 00:46:54;;;;;;;;;;;12.80;99.90;;;;;;5002616;28;20317;-72
2022/06/26 00:49:21;;;;;;;;;;;12.80;99.90;;;;;;5005239;28;19909;-72
2022/06/26 00:51:50;;;;;;;;;;;12.90;99.90;;;;;;5004108;28;19913;-76
2022/06/26 00:54:18;;;;;;;;;;;12.90;99.90;;;;;;5003859;28;19912;-76
2022/06/26 00:56:45;;;;;;;;;;;12.90;99.90;;;;;;5003815;28;19906;-72
2022/06/26 00:59:13;;;;;;;;;;;13.00;99.90;;;;;;5003905;28;20321;-74
2022/06/26 01:01:40;;;;;;;;;;;13.00;99.90;;;;;;5003594;28;20000;-75
2022/06/26 01:04:07;;;;;;;;;;;13.10;99.90;;;;;;5003849;28;20025;-72
2022/06/26 01:06:34;;;;;;;;;;;13.10;99.90;;;;;;5004902;28;19917;-73
2022/06/26 01:09:01;;;;;;;;;;;13.10;99.90;;;;;;5003224;28;19905;-75
2022/06/26 01:11:28;;;;;;;;;;;13.30;99.90;;;;;;5003539;28;19912;-73
2022/06/26 01:13:57;;;;;;;;;;;13.30;99.90;;;;;;5004859;28;19929;-73
2022/06/26 01:16:25;;;;;;;;;;;13.40;99.90;;;;;;5003900;28;19912;-71
2022/06/26 01:18:53;;;;;;;;;;;13.50;99.90;;;;;;5003010;28;20355;-72
2022/06/26 01:21:22;;;;;;;;;;;13.50;99.90;;;;;;5004536;28;19906;-72
2022/06/26 01:23:49;;;;;;;;;;;13.60;99.90;;;;;;5004364;28;19914;-72
2022/06/26 01:26:16;;;;;;;;;;;13.70;99.90;;;;;;5002745;28;19914;-73
2022/06/26 01:28:43;;;;;;;;;;;13.70;99.90;;;;;;5004051;28;19928;-74
2022/06/26 01:31:09;;;;;;;;;;;13.80;99.90;;;;;;5004672;28;19913;-74
2022/06/26 01:33:36;;;;;;;;;;;13.80;99.90;;;;;;5014091;28;19905;-73
2022/06/26 01:36:04;;;;;;;;;;;13.90;99.90;;;;;;5014021;28;20354;-73
2022/06/26 01:38:31;;;;;;;;;;;13.90;99.90;;;;;;5014171;28;20059;-72
2022/06/26 01:40:58;;;;;;;;;;;14.00;99.90;;;;;;5014249;28;19913;-72
2022/06/26 01:43:29;;;;;;;;;;;14.00;99.90;;;;;;5013847;28;19919;-73
2022/06/26 01:45:57;;;;;;;;;;;14.10;99.90;;;;;;5013923;28;19996;-72
2022/06/26 01:48:27;;;;;;;;;;;14.10;99.90;;;;;;5014038;28;19912;-73
2022/06/26 01:50:56;;;;;;;;;;;14.20;99.90;;;;;;5013994;28;19936;-72
2022/06/26 01:53:23;;;;;;;;;;;14.20;99.90;;;;;;5013882;28;19905;-72
2022/06/26 01:55:50;;;;;;;;;;;14.30;99.90;;;;;;5013707;28;20401;-72
2022/06/26 01:58:17;;;;;;;;;;;14.30;99.90;;;;;;5013743;28;19914;-72
2022/06/26 02:00:45;;;;;;;;;;;14.40;99.90;;;;;;5013705;28;19906;-72
2022/06/26 02:03:12;;;;;;;;;;;14.40;99.90;;;;;;5013793;28;20266;-72
2022/06/26 02:05:39;;;;;;;;;;;14.50;99.90;;;;;;5012437;28;20007;-72
2022/06/26 02:08:06;;;;;;;;;;;14.50;99.90;;;;;;5013933;28;19914;-72
2022/06/26 02:13:36;;;;;;;;;;;14.60;99.90;;;;;;5013933;28;19916;-73
2022/06/26 02:16:05;;;;;;;;;;;14.50;99.90;;;;;;5013838;28;19905;-72
2022/06/26 02:18:32;;;;;;;;;;;14.60;99.90;;;;;;5013654;28;19909;-72
2022/06/26 02:20:59;;;;;;;;;;;14.60;99.90;;;;;;5015845;28;20346;-72
2022/06/26 02:23:26;;;;;;;;;;;14.60;99.90;;;;;;5017406;28;19928;-72
2022/06/26 02:25:53;;;;;;;;;;;14.60;99.90;;;;;;5017650;28;19960;-74
2022/06/26 02:28:20;;;;;;;;;;;14.60;99.90;;;;;;5017451;28;19909;-72
2022/06/26 02:30:47;;;;;;;;;;;14.70;99.90;;;;;;5017251;28;19916;-72
2022/06/26 02:33:14;;;;;;;;;;;14.70;99.90;;;;;;5009305;28;19915;-72
2022/06/26 02:35:41;;;;;;;;;;;14.70;99.90;;;;;;5007736;28;20236;-72
2022/06/26 02:38:08;;;;;;;;;;;14.70;99.90;;;;;;5005962;28;19944;-73
2022/06/26 02:40:35;;;;;;;;;;;14.70;99.90;;;;;;5006835;28;19912;-72
2022/06/26 02:43:02;;;;;;;;;;;14.70;99.90;;;;;;5007471;28;19981;-73
2022/06/26 02:45:29;;;;;;;;;;;14.80;99.90;;;;;;5005752;28;19925;-73
2022/06/26 02:47:55;;;;;;;;;;;14.80;99.90;;;;;;5006404;28;20266;-73
2022/06/26 02:50:22;;;;;;;;;;;14.90;99.90;;;;;;5006904;28;20776;-72
2022/06/26 02:52:49;;;;;;;;;;;15.00;99.90;;;;;;5011468;28;19905;-73
2022/06/26 02:55:16;;;;;;;;;;;15.00;99.90;;;;;;5016771;28;19905;-72
2022/06/26 02:57:43;;;;;;;;;;;15.10;99.90;;;;;;5016998;28;19912;-72
2022/06/26 03:00:11;;;;;;;;;;;15.10;99.90;;;;;;5013562;28;19925;-73
2022/06/26 03:02:38;;;;;;;;;;;15.10;99.90;;;;;;5005711;28;19917;-74
2022/06/26 03:05:06;;;;;;;;;;;15.10;99.90;;;;;;4997239;28;20450;-72
2022/06/26 03:07:32;;;;;;;;;;;15.10;99.90;;;;;;4994663;28;19917;-72
2022/06/26 03:09:59;;;;;;;;;;;15.10;99.90;;;;;;4994882;28;20339;-72
2022/06/26 03:12:26;;;;;;;;;;;15.10;99.90;;;;;;4996260;28;19910;-72
2022/06/26 03:14:53;;;;;;;;;;;15.00;99.90;;;;;;4996331;28;19906;-72
2022/06/26 03:17:20;;;;;;;;;;;15.00;99.90;;;;;;4996625;28;19905;-72
2022/06/26 03:19:47;;;;;;;;;;;15.00;99.90;;;;;;4996492;28;20355;-72
2022/06/26 03:22:14;;;;;;;;;;;15.10;99.90;;;;;;4994425;28;19933;-72
2022/06/26 03:24:41;;;;;;;;;;;15.10;99.90;;;;;;4994588;28;19909;-72
2022/06/26 03:27:08;;;;;;;;;;;15.10;99.90;;;;;;4995340;28;20429;-73
2022/06/26 03:29:35;;;;;;;;;;;15.10;99.90;;;;;;4995362;28;19953;-73
2022/06/26 03:32:01;;;;;;;;;;;15.10;99.90;;;;;;4995031;28;19909;-73
2022/06/26 03:34:28;;;;;;;;;;;15.10;99.90;;;;;;4995667;28;19910;-73
2022/06/26 03:36:55;;;;;;;;;;;15.10;99.90;;;;;;4996569;28;19944;-73
2022/06/26 03:39:22;;;;;;;;;;;15.20;99.90;;;;;;4996738;28;19972;-73
2022/06/26 03:42:00;;;;;;;;;;;15.20;99.90;;;;;;4996489;28;20259;-73
2022/06/26 03:44:27;;;;;;;;;;;15.20;99.90;;;;;;4996967;28;19910;-73
2022/06/26 03:46:55;;;;;;;;;;;15.10;99.90;;;;;;4996265;28;20336;-72
2022/06/26 03:49:22;;;;;;;;;;;15.10;99.90;;;;;;4996138;28;19906;-73
2022/06/26 03:51:49;;;;;;;;;;;15.10;99.90;;;;;;4996226;28;19906;-73
2022/06/26 03:54:16;;;;;;;;;;;15.00;99.90;;;;;;4996003;28;20393;-73
2022/06/26 03:56:43;;;;;;;;;;;15.00;99.90;;;;;;4996074;28;20275;-72
2022/06/26 03:59:10;;;;;;;;;;;15.10;99.90;;;;;;4996114;28;20355;-72
2022/06/26 04:01:37;;;;;;;;;;;15.10;99.90;;;;;;4996039;28;20340;-72
2022/06/26 04:04:04;;;;;;;;;;;15.10;99.90;;;;;;4995912;28;19974;-72
2022/06/26 04:06:31;;;;;;;;;;;15.00;99.90;;;;;;4995828;28;19921;-73
2022/06/26 04:08:58;;;;;;;;;;;15.00;99.90;;;;;;4996072;28;19909;-73
2022/06/26 04:11:24;;;;;;;;;;;15.00;99.90;;;;;;4996247;28;19960;-73
2022/06/26 04:13:51;;;;;;;;;;;15.00;99.90;;;;;;4995593;28;19906;-72
2022/06/26 04:16:18;;;;;;;;;;;14.90;99.90;;;;;;4995549;28;19910;-72
2022/06/26 04:18:45;;;;;;;;;;;14.90;99.90;;;;;;4995732;28;19913;-73
2022/06/26 04:21:12;;;;;;;;;;;14.90;99.90;;;;;;4995748;28;19912;-72
2022/06/26 04:23:39;;;;;;;;;;;14.90;99.90;;;;;;4995478;28;19914;-72
2022/06/26 04:26:06;;;;;;;;;;;14.90;99.90;;;;;;4995782;28;19906;-73
2022/06/26 04:28:33;;;;;;;;;;;14.90;99.90;;;;;;4995445;28;19960;-73
2022/06/26 04:31:00;;;;;;;;;;;15.00;99.90;;;;;;4995538;28;19905;-72
2022/06/26 04:33:27;;;;;;;;;;;14.90;99.90;;;;;;4995516;28;19912;-73
2022/06/26 04:35:54;;;;;;;;;;;14.90;99.90;;;;;;4995286;28;19905;-73
2022/06/26 04:38:20;;;;;;;;;;;14.90;99.90;;;;;;4995346;28;19905;-73
2022/06/26 04:40:47;;;;;;;;;;;15.00;99.90;;;;;;4995301;28;19909;-73
2022/06/26 04:43:14;;;;;;;;;;;15.00;99.90;;;;;;4994784;28;20344;-73
2022/06/26 04:45:41;;;;;;;;;;;15.00;99.90;;;;;;4995259;28;19906;-73
2022/06/26 04:48:08;;;;;;;;;;;15.00;99.90;;;;;;4994981;28;19948;-72
2022/06/26 04:50:35;;;;;;;;;;;15.00;99.90;;;;;;4995066;28;20370;-73
2022/06/26 04:53:02;;;;;;;;;;;15.00;99.90;;;;;;4995188;28;19960;-73
2022/06/26 04:55:29;;;;;;;;;;;15.00;99.90;;;;;;4994841;28;19956;-73
2022/06/26 04:57:56;;;;;;;;;;;15.00;99.90;;;;;;4994953;28;20380;-73
2022/06/26 05:00:23;;;;;;;;;;;15.00;99.90;;;;;;4995040;28;19905;-73
2022/06/26 05:02:49;;;;;;;;;;;15.00;99.90;;;;;;4994798;28;19917;-73
2022/06/26 05:05:16;;;;;;;;;;;15.00;99.90;;;;;;4994885;28;19931;-73
2022/06/26 05:07:43;;;;;;;;;;;15.00;99.90;;;;;;4994727;28;19918;-73
2022/06/26 05:10:10;;;;;;;;;;;15.00;99.90;;;;;;4994679;28;20355;-73
2022/06/26 05:12:37;;;;;;;;;;;14.90;99.90;;;;;;4993503;28;20287;-72
2022/06/26 05:15:04;;;;;;;;;;;14.90;99.90;;;;;;4994846;28;19928;-72
2022/06/26 05:17:31;;;;;;;;;;;14.90;99.90;;;;;;4994964;28;19906;-72
2022/06/26 05:19:58;;;;;;;;;;;14.90;99.90;;;;;;4994785;28;19910;-72
2022/06/26 05:22:25;;;;;;;;;;;14.90;99.90;;;;;;4994642;28;19918;-73
2022/06/26 05:24:52;;;;;;;;;;;14.90;99.90;;;;;;4994485;28;19905;-73
2022/06/26 05:27:19;;;;;;;;;;;14.90;99.90;;;;;;4994715;28;19969;-73
2022/06/26 05:29:46;;;;;;;;;;;14.90;99.90;;;;;;4994781;28;20422;-73
2022/06/26 05:32:13;;;;;;;;;;;14.90;99.90;;;;;;4994595;28;19910;-73
2022/06/26 05:34:40;;;;;;;;;;;14.90;99.90;;;;;;4994236;28;20359;-72
2022/06/26 05:37:07;;;;;;;;;;;14.80;99.90;;;;;;4994680;28;20339;-72
2022/06/26 05:39:33;;;;;;;;;;;14.80;99.90;;;;;;4994216;28;19906;-72
2022/06/26 05:42:00;;;;;;;;;;;14.80;99.90;;;;;;4994098;28;19992;-72
2022/06/26 05:44:30;;;;;;;;;;;14.80;99.90;;;;;;4994406;28;20295;-72
2022/06/26 05:46:56;;;;;;;;;;;14.80;99.90;;;;;;4994711;28;19906;-72
2022/06/26 05:49:23;;;;;;;;;;;14.80;99.90;;;;;;4994556;28;19906;-72
2022/06/26 05:51:50;;;;;;;;;;;14.80;99.90;;;;;;4994327;28;20279;-72
2022/06/26 05:54:17;;;;;;;;;;;14.70;99.90;;;;;;4995625;28;20318;-72
2022/06/26 05:56:44;;;;;;;;;;;14.70;99.90;;;;;;4998577;28;20382;-73
2022/06/26 05:59:11;;;;;;;;;;;14.80;99.90;;;;;;5003848;28;19905;-72
2022/06/26 06:01:38;;;;;;;;;;;14.70;99.90;;;;;;5017488;28;19906;-72
2022/06/26 06:04:05;;;;;;;;;;;14.70;99.90;;;;;;5017418;28;19913;-73
2022/06/26 06:06:32;;;;;;;;;;;14.70;99.90;;;;;;5003621;28;19917;-72
2022/06/26 06:08:59;;;;;;;;;;;14.60;99.90;;;;;;5017566;28;19905;-72
2022/06/26 06:11:26;;;;;;;;;;;14.70;99.90;;;;;;5016449;28;20160;-72
2022/06/26 06:13:53;;;;;;;;;;;14.60;99.90;;;;;;5016351;28;19905;-71
2022/06/26 06:16:20;;;;;;;;;;;14.60;99.90;;;;;;5017594;28;19906;-71
2022/06/26 06:18:46;;;;;;;;;;;14.60;99.90;;;;;;5017560;28;19989;-71
2022/06/26 06:21:13;;;;;;;;;;;14.60;99.90;;;;;;5017515;28;19949;-72
2022/06/26 06:23:42;;;;;;;;;;;14.50;99.90;;;;;;5017435;28;19920;-72
2022/06/26 06:26:10;;;;;;;;;;;14.50;99.90;;;;;;5017537;28;19905;-71
2022/06/26 06:28:37;;;;;;;;;;;14.50;99.90;;;;;;5017465;28;19905;-71
2022/06/26 06:31:03;;;;;;;;;;;14.50;99.90;;;;;;5017292;28;19906;-71
2022/06/26 06:33:30;;;;;;;;;;;14.50;99.90;;;;;;5017273;28;19976;-71
2022/06/26 06:35:57;;;;;;;;;;;14.40;99.90;;;;;;5017143;28;20247;-71
2022/06/26 06:38:25;;;;;;;;;;;14.40;99.90;;;;;;5017442;28;19909;-72
2022/06/26 06:40:52;;;;;;;;;;;14.40;99.90;;;;;;5017336;28;19952;-72
2022/06/26 06:43:19;;;;;;;;;;;14.40;99.90;;;;;;5016904;28;19920;-72
2022/06/26 06:45:46;;;;;;;;;;;14.30;99.90;;;;;;5016980;28;19905;-72
2022/06/26 06:48:13;;;;;;;;;;;14.30;99.90;;;;;;5016985;28;19912;-71
2022/06/26 06:50:40;;;;;;;;;;;14.30;99.90;;;;;;5016912;28;20259;-72
2022/06/26 06:53:07;;;;;;;;;;;14.20;99.90;;;;;;5016802;28;20355;-71
2022/06/26 06:55:33;;;;;;;;;;;14.20;99.90;;;;;;5016713;28;19906;-71
2022/06/26 06:58:00;;;;;;;;;;;14.20;99.90;;;;;;5014787;28;19906;-71
2022/06/26 07:00:27;;;;;;;;;;;14.20;99.90;;;;;;5015997;28;20393;-71
2022/06/26 07:02:59;;;;;;;;;;;14.20;99.90;;;;;;5016056;28;19914;-71
2022/06/26 07:05:25;;;;;;;;;;;14.10;99.90;;;;;;5014197;28;19905;-71
2022/06/26 07:07:52;;;;;;;;;;;14.10;99.90;;;;;;5016113;28;20021;-71
2022/06/26 07:10:19;;;;;;;;;;;14.10;99.90;;;;;;4996965;28;20370;-72
2022/06/26 07:12:52;;;;;;;;;;;14.10;99.90;;;;;;4996536;28;19985;-71
2022/06/26 07:15:19;;;;;;;;;;;14.10;99.90;;;;;;5000695;28;19909;-71
2022/06/26 07:17:46;;;;;;;;;;;14.00;99.90;;;;;;5005543;28;19959;-72
2022/06/26 07:20:13;;;;;;;;;;;14.00;99.90;;;;;;4996394;28;19914;-71
2022/06/26 07:22:40;;;;;;;;;;;13.90;99.90;;;;;;4996491;28;19910;-71
2022/06/26 07:25:07;;;;;;;;;;;13.90;99.90;;;;;;4996368;28;20363;-71
2022/06/26 07:27:34;;;;;;;;;;;14.00;99.90;;;;;;5012361;28;19913;-71
2022/06/26 07:30:01;;;;;;;;;;;14.00;99.90;;;;;;5013132;28;19913;-71
2022/06/26 07:32:28;;;;;;;;;;;13.90;99.90;;;;;;5010894;28;19932;-71
2022/06/26 07:34:55;;;;;;;;;;;13.90;99.90;;;;;;5015568;28;20286;-71
2022/06/26 07:37:22;;;;;;;;;;;13.90;99.90;;;;;;5008437;28;20420;-71
2022/06/26 07:39:49;;;;;;;;;;;13.90;99.90;;;;;;5011298;28;19975;-71
2022/06/26 07:42:15;;;;;;;;;;;13.80;99.90;;;;;;5009882;28;20347;-72
2022/06/26 07:44:42;;;;;;;;;;;13.80;99.90;;;;;;5009623;28;19909;-71
2022/06/26 07:47:09;;;;;;;;;;;13.70;99.90;;;;;;5015359;28;20351;-71
2022/06/26 07:49:37;;;;;;;;;;;13.80;99.90;;;;;;5015274;28;20354;-72
2022/06/26 07:52:03;;;;;;;;;;;13.80;99.90;;;;;;5015506;28;19906;-71
2022/06/26 07:54:30;;;;;;;;;;;13.70;99.90;;;;;;5015279;28;20251;-71
2022/06/26 07:56:58;;;;;;;;;;;13.70;99.90;;;;;;5015370;28;19905;-71
2022/06/26 07:59:25;;;;;;;;;;;13.60;99.90;;;;;;5015159;28;19932;-71
2022/06/26 08:01:52;;;;;;;;;;;13.60;99.90;;;;;;5015158;28;19913;-71
2022/06/26 08:04:19;;;;;;;;;;;13.60;99.90;;;;;;5014877;28;19917;-71
2022/06/26 08:06:45;;;;;;;;;;;13.60;99.90;;;;;;5014979;28;19913;-72
2022/06/26 08:09:13;;;;;;;;;;;13.60;99.90;;;;;;5015214;28;19912;-72
2022/06/26 08:11:40;;;;;;;;;;;13.60;99.90;;;;;;5014462;28;19909;-72
2022/06/26 08:14:06;;;;;;;;;;;13.60;99.90;;;;;;5013956;28;19912;-71
2022/06/26 08:16:33;;;;;;;;;;;13.60;99.90;;;;;;5014850;28;19906;-71
2022/06/26 08:19:00;;;;;;;;;;;13.80;99.90;;;;;;5013726;28;19909;-71
2022/06/26 08:24:12;;;;;;;;;;;13.80;99.90;;;;;;5015285;28;19920;-71
2022/06/26 08:26:39;;;;;;;;;;;13.70;99.90;;;;;;5014770;28;19917;-71
2022/06/26 08:29:05;;;;;;;;;;;13.70;99.90;;;;;;5014505;28;19905;-71
2022/06/26 08:31:32;;;;;;;;;;;13.60;99.90;;;;;;5014942;28;19909;-71
2022/06/26 08:33:59;;;;;;;;;;;13.50;99.90;;;;;;5014572;28;19921;-71
2022/06/26 08:36:26;;;;;;;;;;;13.40;99.90;;;;;;5012860;28;19917;-71
2022/06/26 08:39:07;;;;;;;;;;;13.40;99.90;;;;;;5109662;27;19918;-71
2022/06/26 08:41:38;;;;;;;;;;;13.40;99.90;;;;;;5109104;28;19916;-71
2022/06/26 08:44:06;;;;;;;;;;;13.40;99.90;;;;;;5110347;28;19969;-71
2022/06/26 08:46:36;;;;;;;;;;;13.30;99.90;;;;;;5107991;28;19912;-71
2022/06/26 08:49:05;;;;;;;;;;;13.30;99.90;;;;;;5108301;28;19908;-71
2022/06/26 08:51:34;;;;;;;;;;;13.10;99.90;;;;;;5106518;28;19908;-71
2022/06/26 08:54:01;;;;;;;;;;;13.10;99.90;;;;;;5108936;28;19947;-71
2022/06/26 08:56:28;;;;;;;;;;;13.10;99.90;;;;;;5107815;28;19908;-71
2022/06/26 08:58:55;;;;;;;;;;;13.00;99.90;;;;;;5109722;28;19976;-71
2022/06/26 09:01:22;;;;;;;;;;;13.00;99.90;;;;;;5109887;28;20280;-71
2022/06/26 09:03:49;;;;;;;;;;;13.10;99.90;;;;;;5107594;28;19912;-71
2022/06/26 09:06:16;;;;;;;;;;;13.00;99.90;;;;;;5108754;28;19908;-71
2022/06/26 09:08:50;;;;;;;;;;;13.00;99.90;;;;;;5109926;28;19908;-71
2022/06/26 09:11:18;;;;;;;;;;;12.90;99.90;;;;;;5107648;28;19908;-71
2022/06/26 09:13:46;;;;;;;;;;;12.90;99.90;;;;;;5106014;28;19916;-71
2022/06/26 09:16:14;;;;;;;;;;;12.80;99.90;;;;;;5104898;28;20361;-71
2022/06/26 09:18:41;;;;;;;;;;;12.90;99.90;;;;;;5107250;28;20345;-71
2022/06/26 09:21:09;;;;;;;;;;;12.90;99.90;;;;;;5108698;28;19909;-71
2022/06/26 09:23:36;;;;;;;;;;;12.90;99.90;;;;;;5108403;28;19935;-71
2022/06/26 09:26:03;;;;;;;;;;;12.90;99.90;;;;;;5109532;28;19908;-71
2022/06/26 09:28:31;;;;;;;;;;;12.90;99.90;;;;;;5107168;28;19912;-71
2022/06/26 09:30:59;;;;;;;;;;;12.90;99.90;;;;;;5107195;28;19908;-71
2022/06/26 09:33:27;;;;;;;;;;;12.90;99.90;;;;;;5105839;28;19908;-71
2022/06/26 09:35:54;;;;;;;;;;;12.80;99.90;;;;;;5108206;28;19912;-71
2022/06/26 09:38:25;;;;;;;;;;;12.80;99.90;;;;;;5107724;28;19942;-71
2022/06/26 09:40:59;;;;;;;;;;;12.80;99.90;;;;;;5104087;28;19969;-71
2022/06/26 09:43:27;;;;;;;;;;;12.70;99.90;;;;;;5109150;28;19912;-71
2022/06/26 09:45:54;;;;;;;;;;;12.70;99.90;;;;;;5107130;28;20304;-71
2022/06/26 09:48:23;;;;;;;;;;;12.70;99.90;;;;;;5105181;28;20296;-71
2022/06/26 09:50:50;;;;;;;;;;;12.60;99.90;;;;;;5091929;28;19912;-71
2022/06/26 09:53:18;;;;;;;;;;;12.70;99.90;;;;;;5093360;28;19916;-71
2022/06/26 09:55:49;;;;;;;;;;;12.60;99.90;;;;;;5092874;28;20384;-71
2022/06/26 09:58:16;;;;;;;;;;;12.60;99.90;;;;;;5092253;28;19961;-71
2022/06/26 10:06:25;;;;;;;;;;;12.50;99.90;;;;;;5094773;28;20421;-71
2022/06/26 10:06:27;;;;;;;;;;;12.50;99.90;;;;;;5090415;28;19934;-71
2022/06/26 10:08:55;;;;;;;;;;;12.50;99.90;;;;;;5095186;28;19912;-71
2022/06/26 10:11:30;;;;;;;;;;;12.50;99.90;;;;;;5092998;28;19912;-71
2022/06/26 10:13:59;;;;;;;;;;;12.50;99.90;;;;;;5089715;28;19908;-71
2022/06/26 10:16:38;;;;;;;;;;;12.50;99.90;;;;;;5091347;28;19909;-73
2022/06/26 10:19:11;;;;;;;;;;;12.50;99.90;;;;;;5092235;28;20326;-73
2022/06/26 10:21:39;;;;;;;;;;;12.50;99.90;;;;;;5092845;28;19916;-73
2022/06/26 10:24:06;;;;;;;;;;;12.50;99.90;;;;;;5094345;28;20420;-72
2022/06/26 10:26:34;;;;;;;;;;;12.60;99.90;;;;;;5094687;28;19908;-73
2022/06/26 10:29:05;;;;;;;;;;;12.50;99.90;;;;;;5091991;28;19935;-73
2022/06/26 10:31:52;;;;;;;;;;;12.60;99.90;;;;;;5092298;28;20037;-73
2022/06/26 10:34:20;;;;;;;;;;;12.60;99.90;;;;;;5087662;28;20373;-73
2022/06/26 10:37:05;;;;;;;;;;;12.60;99.90;;;;;;5093451;28;19908;-73
2022/06/26 10:39:45;;;;;;;;;;;12.60;99.90;;;;;;5093691;28;19923;-72
2022/06/26 10:42:53;;;;;;;;;;;12.50;99.90;;;;;;5089287;28;19915;-73
2022/06/26 10:45:21;;;;;;;;;;;12.50;99.90;;;;;;5081423;28;19939;-73
2022/06/26 10:47:52;;;;;;;;;;;12.50;99.90;;;;;;5075202;28;19915;-73
2022/06/26 10:50:30;;;;;;;;;;;12.40;99.90;;;;;;5075141;28;19909;-73
2022/06/26 10:53:15;;;;;;;;;;;12.30;99.90;;;;;;5074870;28;19951;-73
2022/06/26 10:55:43;;;;;;;;;;;12.30;99.90;;;;;;5075064;28;19998;-73
2022/06/26 10:58:17;;;;;;;;;;;12.20;99.90;;;;;;5074799;28;20379;-73
2022/06/26 11:00:44;;;;;;;;;;;12.10;99.90;;;;;;5074125;28;19920;-73
2022/06/26 11:03:15;;;;;;;;;;;12.10;99.90;;;;;;5092420;27;19920;-73
2022/06/26 11:05:51;;;;;;;;;;;12.10;99.90;;;;;;5092105;28;19908;-73
2022/06/26 11:08:25;;;;;;;;;;;12.00;99.90;;;;;;5090323;28;19915;-73
2022/06/26 11:10:53;;;;;;;;;;;12.10;99.90;;;;;;5092927;28;19908;-73
2022/06/26 11:13:20;;;;;;;;;;;12.10;99.90;;;;;;5091908;28;19977;-73
2022/06/26 11:15:47;;;;;;;;;;;12.10;99.90;;;;;;5092642;28;19908;-73
2022/06/26 11:18:14;;;;;;;;;;;12.10;99.90;;;;;;5092512;28;19920;-71
2022/06/26 11:20:49;;;;;;;;;;;12.10;99.90;;;;;;5092808;28;19915;-71
2022/06/26 11:23:18;;;;;;;;;;;12.10;99.90;;;;;;5090302;28;19908;-73
2022/06/26 11:25:46;;;;;;;;;;;12.10;99.90;;;;;;5091654;28;19938;-73
2022/06/26 11:28:14;;;;;;;;;;;12.10;99.90;;;;;;5089757;28;19934;-73
2022/06/26 11:30:42;;;;;;;;;;;12.00;99.90;;;;;;5092276;28;19908;-71
2022/06/26 11:33:10;;;;;;;;;;;12.00;99.90;;;;;;5091094;28;19908;-71
2022/06/26 11:35:37;;;;;;;;;;;12.00;99.90;;;;;;5092891;28;19908;-71
2022/06/26 11:38:10;;;;;;;;;;;11.90;99.90;;;;;;5092631;28;19924;-73
2022/06/26 11:40:37;;;;;;;;;;;11.90;99.90;;;;;;5090928;28;19957;-73
2022/06/26 11:43:04;;;;;;;;;;;11.90;99.90;;;;;;5089457;28;19935;-73
2022/06/26 11:45:32;;;;;;;;;;;11.90;99.90;;;;;;5089632;28;19908;-73
2022/06/26 11:48:00;;;;;;;;;;;11.90;99.90;;;;;;5091284;28;20011;-73
2022/06/26 11:50:29;;;;;;;;;;;11.80;99.90;;;;;;5074344;28;19915;-73
2022/06/26 11:52:57;;;;;;;;;;;11.80;99.90;;;;;;5073904;28;19986;-73
2022/06/26 11:55:24;;;;;;;;;;;11.90;99.90;;;;;;5073581;28;19995;-73
2022/06/26 11:57:52;;;;;;;;;;;11.80;99.90;;;;;;5073639;28;19919;-73
2022/06/26 12:00:20;;;;;;;;;;;11.80;99.90;;;;;;5073703;28;20281;-73
2022/06/26 12:02:48;;;;;;;;;;;11.80;99.90;;;;;;5073846;28;19909;-73
2022/06/26 12:05:22;;;;;;;;;;;11.80;99.90;;;;;;5073768;28;19999;-73
2022/06/26 12:07:49;;;;;;;;;;;11.80;99.90;;;;;;5088996;28;19908;-73
2022/06/26 12:10:29;;;;;;;;;;;11.80;99.90;;;;;;5094074;28;20284;-73
2022/06/26 12:12:56;;;;;;;;;;;11.80;99.90;;;;;;5093186;28;19938;-73
2022/06/26 12:15:24;;;;;;;;;;;11.80;99.90;;;;;;5091855;28;19912;-73
2022/06/26 12:17:52;;;;;;;;;;;11.80;99.90;;;;;;5092669;28;19924;-72
2022/06/26 12:20:19;;;;;;;;;;;11.80;99.90;;;;;;5090189;28;19916;-71
2022/06/26 12:22:53;;;;;;;;;;;11.80;99.90;;;;;;5089196;28;20380;-71
2022/06/26 12:25:33;;;;;;;;;;;11.80;99.90;;;;;;5091326;28;19962;-71
2022/06/26 12:28:01;;;;;;;;;;;11.80;99.90;;;;;;5090461;28;20382;-71
2022/06/26 12:30:29;;;;;;;;;;;11.80;99.90;;;;;;5092152;28;19994;-71
2022/06/26 12:32:57;;;;;;;;;;;11.80;99.90;;;;;;5091813;28;19974;-71
2022/06/26 12:35:24;;;;;;;;;;;11.80;99.90;;;;;;5092685;28;19912;-71
2022/06/26 12:37:51;;;;;;;;;;;11.80;99.90;;;;;;5089902;28;20014;-71
2022/06/26 12:40:18;;;;;;;;;;;11.80;99.90;;;;;;5088477;28;20058;-71
2022/06/26 12:42:45;;;;;;;;;;;11.80;99.90;;;;;;5091170;28;19908;-71
2022/06/26 12:45:12;;;;;;;;;;;11.80;99.90;;;;;;5090243;28;19908;-71
2022/06/26 12:47:39;;;;;;;;;;;11.80;99.90;;;;;;5091816;28;19915;-71
2022/06/26 12:50:06;;;;;;;;;;;11.70;99.90;;;;;;5091811;28;19916;-71
2022/06/26 12:52:34;;;;;;;;;;;11.70;99.90;;;;;;5092871;28;20268;-71
2022/06/26 12:55:01;;;;;;;;;;;11.70;99.90;;;;;;5089774;28;19931;-71
2022/06/26 12:57:28;;;;;;;;;;;11.60;99.90;;;;;;5089070;28;19923;-71
2022/06/26 12:59:55;;;;;;;;;;;11.60;99.90;;;;;;5091024;28;19914;-71
2022/06/26 13:02:21;;;;;;;;;;;11.60;99.90;;;;;;5090127;28;19995;-70
2022/06/26 13:04:49;;;;;;;;;;;11.60;99.90;;;;;;5087535;28;19909;-71
2022/06/26 13:07:15;;;;;;;;;;;11.60;99.90;;;;;;5090423;28;20265;-71
2022/06/26 13:09:42;;;;;;;;;;;11.60;99.90;;;;;;5088969;28;19915;-71
2022/06/26 13:12:09;;;;;;;;;;;11.60;99.90;;;;;;5083975;28;19909;-71
2022/06/26 13:14:36;;;;;;;;;;;11.60;99.90;;;;;;5072858;28;19915;-71
2022/06/26 13:17:03;;;;;;;;;;;11.50;99.90;;;;;;5072950;28;19920;-70
2022/06/26 13:19:30;;;;;;;;;;;11.60;99.90;;;;;;5066372;28;19912;-70
2022/06/26 13:21:56;;;;;;;;;;;11.50;99.90;;;;;;5072974;28;19908;-71
2022/06/26 13:24:23;;;;;;;;;;;11.50;99.90;;;;;;5074390;28;20277;-70
2022/06/26 13:26:50;;;;;;;;;;;11.40;99.90;;;;;;5076646;28;19969;-71
2022/06/26 13:29:17;;;;;;;;;;;11.40;99.90;;;;;;5076657;28;19991;-71
2022/06/26 13:31:44;;;;;;;;;;;11.40;99.90;;;;;;5081634;28;20478;-71
2022/06/26 13:34:11;;;;;;;;;;;11.40;99.90;;;;;;5093444;28;19908;-71
2022/06/26 13:36:38;;;;;;;;;;;11.30;99.90;;;;;;5093631;28;19974;-71
2022/06/26 13:39:05;;;;;;;;;;;11.30;99.90;;;;;;5078965;28;19927;-70
2022/06/26 13:41:32;;;;;;;;;;;11.30;99.90;;;;;;5095405;28;19908;-71
2022/06/26 13:43:59;;;;;;;;;;;11.30;99.90;;;;;;5091026;28;19987;-71
2022/06/26 13:46:26;;;;;;;;;;;11.30;99.90;;;;;;5084886;28;19908;-71
2022/06/26 13:48:53;;;;;;;;;;;11.30;99.90;;;;;;5076294;28;19908;-72
2022/06/26 13:51:19;;;;;;;;;;;11.30;99.90;;;;;;5075830;28;19915;-73
2022/06/26 13:53:46;;;;;;;;;;;11.40;99.90;;;;;;5076233;28;19991;-73
2022/06/26 13:56:16;;;;;;;;;;;11.40;99.90;;;;;;5076142;28;19909;-73
2022/06/26 13:58:44;;;;;;;;;;;11.30;99.90;;;;;;5070153;28;19923;-73
2022/06/26 14:01:10;;;;;;;;;;;11.30;99.90;;;;;;5075064;28;19909;-72
2022/06/26 14:03:37;;;;;;;;;;;11.30;99.90;;;;;;5063312;28;20349;-73
2022/06/26 14:06:04;;;;;;;;;;;11.30;99.90;;;;;;5075972;28;20281;-73
2022/06/26 14:08:31;;;;;;;;;;;11.20;99.90;;;;;;5075962;28;19908;-73
2022/06/26 14:10:58;;;;;;;;;;;11.20;99.90;;;;;;5076017;28;19912;-73
2022/06/26 14:13:25;;;;;;;;;;;11.20;99.90;;;;;;5075807;28;19915;-73
2022/06/26 14:15:52;;;;;;;;;;;11.20;99.90;;;;;;5075316;28;19920;-73
2022/06/26 14:18:19;;;;;;;;;;;11.30;99.90;;;;;;5107543;28;19916;-72
2022/06/26 14:20:46;;;;;;;;;;;11.30;99.90;;;;;;5075140;28;19908;-73
2022/06/26 14:26:02;;;;;;;;;;;11.20;99.90;;;;;;5075372;28;19954;-73
2022/06/26 14:28:31;;;;;;;;;;;11.20;99.90;;;;;;5074044;28;19916;-73
2022/06/26 14:30:58;;;;;;;;;;;11.10;99.90;;;;;;5074136;28;20351;-72